sensor_id;sensor_type;location;lat;lon;timestamp;pressure;altitude;pressure_sealevel;temperature;humidity
9521;BME280;4798;41.574;23.734;2024-03-06T00:01:21;95012.03;;;9.44;100.00
9521;BME280;4798;41.574;23.734;2024-03-06T00:03:52;95020.78;;;9.44;100.00
9521;BME280;4798;41.574;23.734;2024-03-06T00:06:20;95018.41;;;9.38;100.00
9521;BME280;4798;41.574;23.734;2024-03-06T00:08:49;95013.31;;;9.62;100.00
9521;BME280;4798;41.574;23.734;2024-03-06T00:11:18;95019.75;;;9.99;100.00
9521;BME280;4798;41.574;23.734;2024-03-06T00:13:46;95017.78;;;10.30;98.22
9521;BME280;4798;41.574;23.734;2024-03-06T00:16:16;95010.03;;;9.90;100.00
9521;BME280;4798;41.574;23.734;2024-03-06T00:18:46;95013.94;;;10.02;100.00
9521;BME280;4798;41.574;23.734;2024-03-06T00:21:16;95025.50;;;9.63;100.00
9521;BME280;4798;41.574;23.734;2024-03-06T00:23:45;95026.34;;;9.43;100.00
9521;BME280;4798;41.574;23.734;2024-03-06T00:26:14;95019.69;;;9.55;100.00
9521;BME280;4798;41.574;23.734;2024-03-06T00:28:42;95020.38;;;9.86;100.00
9521;BME280;4798;41.574;23.734;2024-03-06T00:31:11;95011.38;;;9.82;100.00
9521;BME280;4798;41.574;23.734;2024-03-06T00:33:40;95007.69;;;9.78;100.00
9521;BME280;4798;41.574;23.734;2024-03-06T00:36:09;94978.19;;;9.46;100.00
9521;BME280;4798;41.574;23.734;2024-03-06T00:38:39;95035.25;;;9.72;100.00
9521;BME280;4798;41.574;23.734;2024-03-06T00:41:07;95031.03;;;9.66;100.00
9521;BME280;4798;41.574;23.734;2024-03-06T00:43:36;94980.88;;;9.36;100.00
9521;BME280;4798;41.574;23.734;2024-03-06T00:46:05;95029.97;;;9.67;100.00
9521;BME280;4798;41.574;23.734;2024-03-06T00:48:33;95004.63;;;9.51;100.00
9521;BME280;4798;41.574;23.734;2024-03-06T00:51:05;94957.66;;;9.13;100.00
9521;BME280;4798;41.574;23.734;2024-03-06T00:53:34;95042.66;;;9.70;100.00
9521;BME280;4798;41.574;23.734;2024-03-06T00:56:06;95045.84;;;9.67;100.00
9521;BME280;4798;41.574;23.734;2024-03-06T00:58:35;95038.16;;;9.71;100.00
9521;BME280;4798;41.574;23.734;2024-03-06T01:01:04;95044.38;;;9.26;100.00
9521;BME280;4798;41.574;23.734;2024-03-06T01:03:32;95045.69;;;8.68;100.00
9521;BME280;4798;41.574;23.734;2024-03-06T01:06:01;95042.28;;;8.67;100.00
9521;BME280;4798;41.574;23.734;2024-03-06T01:08:29;95040.69;;;8.71;100.00
9521;BME280;4798;41.574;23.734;2024-03-06T01:10:59;95002.56;;;8.12;100.00
9521;BME280;4798;41.574;23.734;2024-03-06T01:13:29;94981.97;;;8.09;100.00
9521;BME280;4798;41.574;23.734;2024-03-06T01:15:57;95037.72;;;8.32;100.00
9521;BME280;4798;41.574;23.734;2024-03-06T01:18:26;95055.91;;;8.14;100.00
9521;BME280;4798;41.574;23.734;2024-03-06T01:20:54;94992.81;;;7.35;100.00
9521;BME280;4798;41.574;23.734;2024-03-06T01:23:23;95049.41;;;7.75;100.00
9521;BME280;4798;41.574;23.734;2024-03-06T01:25:52;95041.53;;;7.90;100.00
9521;BME280;4798;41.574;23.734;2024-03-06T01:28:20;95051.03;;;7.86;100.00
9521;BME280;4798;41.574;23.734;2024-03-06T01:30:50;95051.03;;;7.86;100.00
9521;BME280;4798;41.574;23.734;2024-03-06T01:33:19;95052.59;;;7.77;100.00
9521;BME280;4798;41.574;23.734;2024-03-06T01:35:47;94973.41;;;7.04;100.00
9521;BME280;4798;41.574;23.734;2024-03-06T01:38:16;95052.97;;;7.43;100.00
9521;BME280;4798;41.574;23.734;2024-03-06T01:40:45;95056.94;;;7.46;100.00
9521;BME280;4798;41.574;23.734;2024-03-06T01:43:21;95048.75;;;8.04;100.00
9521;BME280;4798;41.574;23.734;2024-03-06T01:45:51;95054.72;;;7.85;100.00
9521;BME280;4798;41.574;23.734;2024-03-06T01:48:23;95058.97;;;7.86;100.00
9521;BME280;4798;41.574;23.734;2024-03-06T01:50:53;95057.94;;;7.92;100.00
9521;BME280;4798;41.574;23.734;2024-03-06T01:53:24;95057.13;;;7.91;100.00
9521;BME280;4798;41.574;23.734;2024-03-06T01:55:52;95058.44;;;7.89;100.00
9521;BME280;4798;41.574;23.734;2024-03-06T01:58:23;94986.22;;;7.33;100.00
9521;BME280;4798;41.574;23.734;2024-03-06T02:00:53;95059.38;;;7.62;100.00
9521;BME280;4798;41.574;23.734;2024-03-06T02:03:22;95061.38;;;7.40;100.00
9521;BME280;4798;41.574;23.734;2024-03-06T02:05:53;95067.00;;;7.12;100.00
9521;BME280;4798;41.574;23.734;2024-03-06T02:08:22;95074.81;;;7.02;100.00
9521;BME280;4798;41.574;23.734;2024-03-06T02:10:50;95090.09;;;6.68;100.00
9521;BME280;4798;41.574;23.734;2024-03-06T02:13:19;95082.69;;;6.97;100.00
9521;BME280;4798;41.574;23.734;2024-03-06T02:15:48;95081.41;;;6.99;100.00
9521;BME280;4798;41.574;23.734;2024-03-06T02:18:18;95049.00;;;6.67;100.00
9521;BME280;4798;41.574;23.734;2024-03-06T02:20:48;95100.91;;;7.03;100.00
9521;BME280;4798;41.574;23.734;2024-03-06T02:23:17;95095.19;;;7.12;100.00
9521;BME280;4798;41.574;23.734;2024-03-06T02:25:48;95104.06;;;7.37;100.00
9521;BME280;4798;41.574;23.734;2024-03-06T02:28:17;95075.84;;;7.33;100.00
9521;BME280;4798;41.574;23.734;2024-03-06T02:30:49;95102.09;;;7.59;100.00
9521;BME280;4798;41.574;23.734;2024-03-06T02:33:18;95107.81;;;7.46;100.00
9521;BME280;4798;41.574;23.734;2024-03-06T02:35:48;95072.06;;;7.24;100.00
9521;BME280;4798;41.574;23.734;2024-03-06T02:38:17;95116.28;;;7.48;100.00
9521;BME280;4798;41.574;23.734;2024-03-06T02:40:45;95108.09;;;7.50;100.00
9521;BME280;4798;41.574;23.734;2024-03-06T02:43:15;95111.00;;;7.48;100.00
9521;BME280;4798;41.574;23.734;2024-03-06T02:45:44;95113.06;;;7.46;100.00
9521;BME280;4798;41.574;23.734;2024-03-06T02:48:12;95111.25;;;7.47;100.00
9521;BME280;4798;41.574;23.734;2024-03-06T02:50:41;95112.03;;;7.47;100.00
9521;BME280;4798;41.574;23.734;2024-03-06T02:53:11;95051.69;;;7.09;100.00
9521;BME280;4798;41.574;23.734;2024-03-06T02:55:40;95104.91;;;7.43;100.00
9521;BME280;4798;41.574;23.734;2024-03-06T02:58:08;95108.88;;;7.45;100.00
9521;BME280;4798;41.574;23.734;2024-03-06T03:00:39;95115.06;;;7.29;100.00
9521;BME280;4798;41.574;23.734;2024-03-06T03:03:08;95091.50;;;7.13;100.00
9521;BME280;4798;41.574;23.734;2024-03-06T03:05:39;95121.13;;;6.93;100.00
9521;BME280;4798;41.574;23.734;2024-03-06T03:08:07;95119.19;;;6.83;100.00
9521;BME280;4798;41.574;23.734;2024-03-06T03:10:38;95127.03;;;7.05;100.00
9521;BME280;4798;41.574;23.734;2024-03-06T03:13:06;95099.56;;;7.01;100.00
9521;BME280;4798;41.574;23.734;2024-03-06T03:15:35;95132.91;;;7.17;100.00
9521;BME280;4798;41.574;23.734;2024-03-06T03:18:03;95134.22;;;7.15;100.00
9521;BME280;4798;41.574;23.734;2024-03-06T03:20:32;95139.59;;;6.93;100.00
9521;BME280;4798;41.574;23.734;2024-03-06T03:23:01;95140.34;;;6.93;100.00
9521;BME280;4798;41.574;23.734;2024-03-06T03:25:30;95145.38;;;6.95;100.00
9521;BME280;4798;41.574;23.734;2024-03-06T03:28:00;95150.66;;;6.95;100.00
9521;BME280;4798;41.574;23.734;2024-03-06T03:30:29;95148.34;;;7.03;100.00
9521;BME280;4798;41.574;23.734;2024-03-06T03:32:57;95147.31;;;7.04;100.00
9521;BME280;4798;41.574;23.734;2024-03-06T03:35:26;95148.09;;;7.05;100.00
9521;BME280;4798;41.574;23.734;2024-03-06T03:37:55;95152.88;;;7.08;100.00
9521;BME280;4798;41.574;23.734;2024-03-06T03:40:24;95150.22;;;7.03;100.00
9521;BME280;4798;41.574;23.734;2024-03-06T03:42:52;95082.91;;;6.59;100.00
9521;BME280;4798;41.574;23.734;2024-03-06T03:45:22;95082.31;;;6.52;100.00
9521;BME280;4798;41.574;23.734;2024-03-06T03:47:51;95150.88;;;6.93;100.00
9521;BME280;4798;41.574;23.734;2024-03-06T03:50:19;95149.47;;;6.81;100.00
9521;BME280;4798;41.574;23.734;2024-03-06T03:52:48;94955.53;;;5.53;100.00
9521;BME280;4798;41.574;23.734;2024-03-06T03:55:17;95161.59;;;6.82;100.00
9521;BME280;4798;41.574;23.734;2024-03-06T03:57:46;95155.78;;;6.80;100.00
9521;BME280;4798;41.574;23.734;2024-03-06T04:00:15;95168.69;;;6.81;100.00
9521;BME280;4798;41.574;23.734;2024-03-06T04:02:45;95178.38;;;6.76;100.00
9521;BME280;4798;41.574;23.734;2024-03-06T04:05:14;95188.69;;;6.77;100.00
9521;BME280;4798;41.574;23.734;2024-03-06T04:07:42;95186.81;;;6.73;100.00
9521;BME280;4798;41.574;23.734;2024-03-06T04:10:11;95189.81;;;6.60;100.00
9521;BME280;4798;41.574;23.734;2024-03-06T04:12:40;95161.25;;;6.47;100.00
9521;BME280;4798;41.574;23.734;2024-03-06T04:15:09;95191.16;;;6.62;100.00
9521;BME280;4798;41.574;23.734;2024-03-06T04:17:37;95188.69;;;6.56;100.00
9521;BME280;4798;41.574;23.734;2024-03-06T04:20:10;95173.56;;;6.19;100.00
9521;BME280;4798;41.574;23.734;2024-03-06T04:22:40;95191.41;;;5.96;100.00
9521;BME280;4798;41.574;23.734;2024-03-06T04:25:09;95205.31;;;6.34;100.00
9521;BME280;4798;41.574;23.734;2024-03-06T04:27:37;95192.78;;;6.42;100.00
9521;BME280;4798;41.574;23.734;2024-03-06T04:30:07;95196.50;;;6.46;100.00
9521;BME280;4798;41.574;23.734;2024-03-06T04:32:36;95199.94;;;6.24;100.00
9521;BME280;4798;41.574;23.734;2024-03-06T04:35:05;95193.13;;;6.28;100.00
9521;BME280;4798;41.574;23.734;2024-03-06T04:37:36;95202.81;;;6.23;100.00
9521;BME280;4798;41.574;23.734;2024-03-06T04:40:05;95205.56;;;6.11;100.00
9521;BME280;4798;41.574;23.734;2024-03-06T04:42:35;95191.25;;;6.24;100.00
9521;BME280;4798;41.574;23.734;2024-03-06T04:45:10;95203.41;;;6.52;100.00
9521;BME280;4798;41.574;23.734;2024-03-06T04:47:38;95198.63;;;6.49;100.00
9521;BME280;4798;41.574;23.734;2024-03-06T04:50:09;95201.16;;;6.60;100.00
9521;BME280;4798;41.574;23.734;2024-03-06T04:52:40;95196.53;;;6.51;100.00
9521;BME280;4798;41.574;23.734;2024-03-06T04:55:09;95204.38;;;6.67;100.00
9521;BME280;4798;41.574;23.734;2024-03-06T04:57:38;95208.91;;;6.72;100.00
9521;BME280;4798;41.574;23.734;2024-03-06T05:00:11;95200.91;;;6.62;100.00
9521;BME280;4798;41.574;23.734;2024-03-06T05:02:40;95217.59;;;6.72;100.00
9521;BME280;4798;41.574;23.734;2024-03-06T05:05:26;95181.19;;;6.43;100.00
9521;BME280;4798;41.574;23.734;2024-03-06T05:08:14;95234.25;;;6.78;100.00
9521;BME280;4798;41.574;23.734;2024-03-06T05:11:00;95236.47;;;6.43;100.00
9521;BME280;4798;41.574;23.734;2024-03-06T05:13:46;95249.56;;;6.37;100.00
9521;BME280;4798;41.574;23.734;2024-03-06T05:16:32;95248.78;;;5.82;100.00
9521;BME280;4798;41.574;23.734;2024-03-06T05:19:19;95221.69;;;5.98;100.00
9521;BME280;4798;41.574;23.734;2024-03-06T05:22:04;95193.00;;;5.80;100.00
9521;BME280;4798;41.574;23.734;2024-03-06T05:24:52;95214.22;;;5.73;100.00
9521;BME280;4798;41.574;23.734;2024-03-06T05:27:39;95255.06;;;6.14;100.00
9521;BME280;4798;41.574;23.734;2024-03-06T05:30:25;95260.22;;;6.26;100.00
9521;BME280;4798;41.574;23.734;2024-03-06T05:33:11;95264.81;;;6.35;100.00
9521;BME280;4798;41.574;23.734;2024-03-06T05:35:57;95263.56;;;6.60;100.00
9521;BME280;4798;41.574;23.734;2024-03-06T05:38:43;95257.22;;;6.82;100.00
9521;BME280;4798;41.574;23.734;2024-03-06T05:41:30;95265.47;;;6.91;100.00
9521;BME280;4798;41.574;23.734;2024-03-06T05:44:16;95267.03;;;6.87;100.00
9521;BME280;4798;41.574;23.734;2024-03-06T05:47:03;95209.59;;;6.19;100.00
9521;BME280;4798;41.574;23.734;2024-03-06T05:49:50;95264.81;;;6.79;100.00
9521;BME280;4798;41.574;23.734;2024-03-06T05:52:35;95267.50;;;7.06;100.00
9521;BME280;4798;41.574;23.734;2024-03-06T05:55:21;95265.31;;;7.56;100.00
9521;BME280;4798;41.574;23.734;2024-03-06T05:58:08;95267.03;;;7.72;100.00
9521;BME280;4798;41.574;23.734;2024-03-06T06:00:42;95268.78;;;7.61;100.00
9521;BME280;4798;41.574;23.734;2024-03-06T06:03:11;95272.22;;;7.62;100.00
9521;BME280;4798;41.574;23.734;2024-03-06T06:05:39;95274.44;;;7.75;100.00
9521;BME280;4798;41.574;23.734;2024-03-06T06:08:08;95278.41;;;7.78;100.00
9521;BME280;4798;41.574;23.734;2024-03-06T06:10:37;95280.94;;;7.94;100.00
9521;BME280;4798;41.574;23.734;2024-03-06T06:13:06;95277.78;;;8.02;100.00
9521;BME280;4798;41.574;23.734;2024-03-06T06:15:36;95273.66;;;8.11;100.00
9521;BME280;4798;41.574;23.734;2024-03-06T06:18:05;95280.56;;;8.22;100.00
9521;BME280;4798;41.574;23.734;2024-03-06T06:20:34;95215.50;;;7.96;100.00
9521;BME280;4798;41.574;23.734;2024-03-06T06:23:03;95217.88;;;8.40;100.00
9521;BME280;4798;41.574;23.734;2024-03-06T06:25:31;95265.09;;;8.98;100.00
9521;BME280;4798;41.574;23.734;2024-03-06T06:28:00;95279.50;;;9.63;95.71
9521;BME280;4798;41.574;23.734;2024-03-06T06:30:29;95272.59;;;10.02;96.37
9521;BME280;4798;41.574;23.734;2024-03-06T06:32:59;95270.72;;;10.43;88.14
9521;BME280;4798;41.574;23.734;2024-03-06T06:35:27;95275.69;;;10.69;83.13
9521;BME280;4798;41.574;23.734;2024-03-06T06:37:56;95262.47;;;11.13;81.25
9521;BME280;4798;41.574;23.734;2024-03-06T06:40:25;95264.22;;;11.38;80.44
9521;BME280;4798;41.574;23.734;2024-03-06T06:42:55;95265.34;;;11.66;78.94
9521;BME280;4798;41.574;23.734;2024-03-06T06:45:23;95269.19;;;12.17;76.79
9521;BME280;4798;41.574;23.734;2024-03-06T06:47:52;95267.53;;;12.26;75.91
9521;BME280;4798;41.574;23.734;2024-03-06T06:50:22;95265.84;;;12.35;77.22
9521;BME280;4798;41.574;23.734;2024-03-06T06:52:53;95264.66;;;12.70;76.84
9521;BME280;4798;41.574;23.734;2024-03-06T06:55:22;95263.75;;;13.03;74.73
9521;BME280;4798;41.574;23.734;2024-03-06T06:57:51;95260.44;;;13.35;72.31
9521;BME280;4798;41.574;23.734;2024-03-06T07:00:20;95255.47;;;13.47;71.95
9521;BME280;4798;41.574;23.734;2024-03-06T07:02:50;95258.75;;;13.76;69.41
9521;BME280;4798;41.574;23.734;2024-03-06T07:05:19;95256.94;;;13.90;70.02
9521;BME280;4798;41.574;23.734;2024-03-06T07:07:49;95237.03;;;13.69;68.54
9521;BME280;4798;41.574;23.734;2024-03-06T07:10:21;95256.44;;;13.88;66.74
9521;BME280;4798;41.574;23.734;2024-03-06T07:12:50;95257.19;;;13.19;68.75
9521;BME280;4798;41.574;23.734;2024-03-06T07:15:19;95254.00;;;13.36;67.88
9521;BME280;4798;41.574;23.734;2024-03-06T07:17:47;95194.09;;;12.77;68.73
9521;BME280;4798;41.574;23.734;2024-03-06T07:20:17;95206.50;;;13.06;69.20
9521;BME280;4798;41.574;23.734;2024-03-06T07:22:45;95261.00;;;12.90;70.01
9521;BME280;4798;41.574;23.734;2024-03-06T07:25:15;95269.59;;;12.58;72.30
9521;BME280;4798;41.574;23.734;2024-03-06T07:27:44;95263.03;;;12.98;70.98
9521;BME280;4798;41.574;23.734;2024-03-06T07:30:13;95251.59;;;13.58;68.26
9521;BME280;4798;41.574;23.734;2024-03-06T07:32:42;95241.34;;;13.47;67.78
9521;BME280;4798;41.574;23.734;2024-03-06T07:35:11;95263.22;;;14.32;67.48
9521;BME280;4798;41.574;23.734;2024-03-06T07:37:40;95191.53;;;14.12;64.85
9521;BME280;4798;41.574;23.734;2024-03-06T07:40:12;95258.88;;;14.63;63.60
9521;BME280;4798;41.574;23.734;2024-03-06T07:42:42;95202.66;;;14.73;62.85
9521;BME280;4798;41.574;23.734;2024-03-06T07:45:10;95249.66;;;15.51;60.77
9521;BME280;4798;41.574;23.734;2024-03-06T07:47:39;95254.34;;;15.89;61.27
9521;BME280;4798;41.574;23.734;2024-03-06T07:50:10;95219.81;;;16.24;59.91
9521;BME280;4798;41.574;23.734;2024-03-06T07:52:39;95240.94;;;16.65;58.20
9521;BME280;4798;41.574;23.734;2024-03-06T07:55:08;95238.72;;;17.06;57.08
9521;BME280;4798;41.574;23.734;2024-03-06T07:57:36;95237.56;;;17.38;57.63
9521;BME280;4798;41.574;23.734;2024-03-06T08:00:08;95242.78;;;17.68;53.58
9521;BME280;4798;41.574;23.734;2024-03-06T08:02:41;95232.16;;;18.32;52.58
9521;BME280;4798;41.574;23.734;2024-03-06T08:05:11;95172.72;;;18.04;52.81
9521;BME280;4798;41.574;23.734;2024-03-06T08:07:40;95207.13;;;17.42;51.90
9521;BME280;4798;41.574;23.734;2024-03-06T08:10:10;95244.78;;;17.37;54.07
9521;BME280;4798;41.574;23.734;2024-03-06T08:12:41;95243.09;;;17.58;52.63
9521;BME280;4798;41.574;23.734;2024-03-06T08:15:12;95197.69;;;17.79;51.87
9521;BME280;4798;41.574;23.734;2024-03-06T08:17:43;95205.72;;;17.88;51.67
9521;BME280;4798;41.574;23.734;2024-03-06T08:20:12;95244.41;;;17.13;51.64
9521;BME280;4798;41.574;23.734;2024-03-06T08:22:42;95248.13;;;17.94;52.33
9521;BME280;4798;41.574;23.734;2024-03-06T08:25:11;95245.63;;;17.98;52.44
9521;BME280;4798;41.574;23.734;2024-03-06T08:27:41;95239.56;;;18.35;50.91
9521;BME280;4798;41.574;23.734;2024-03-06T08:30:12;95246.75;;;17.62;50.04
9521;BME280;4798;41.574;23.734;2024-03-06T08:32:41;95183.91;;;18.15;49.90
9521;BME280;4798;41.574;23.734;2024-03-06T08:35:12;95241.03;;;17.81;49.69
9521;BME280;4798;41.574;23.734;2024-03-06T08:37:47;95237.53;;;18.23;48.42
9521;BME280;4798;41.574;23.734;2024-03-06T08:40:16;95217.31;;;18.34;48.44
9521;BME280;4798;41.574;23.734;2024-03-06T08:42:45;95220.75;;;18.52;48.44
9521;BME280;4798;41.574;23.734;2024-03-06T08:45:16;95236.50;;;19.00;48.06
9521;BME280;4798;41.574;23.734;2024-03-06T08:47:45;95238.41;;;19.29;47.52
9521;BME280;4798;41.574;23.734;2024-03-06T08:50:15;95232.19;;;19.45;47.28
9521;BME280;4798;41.574;23.734;2024-03-06T08:52:45;95236.44;;;19.17;46.08
9521;BME280;4798;41.574;23.734;2024-03-06T08:55:14;95239.38;;;18.95;46.26
9521;BME280;4798;41.574;23.734;2024-03-06T08:57:43;95232.63;;;19.68;45.69
9521;BME280;4798;41.574;23.734;2024-03-06T09:00:13;95194.00;;;19.52;45.55
9521;BME280;4798;41.574;23.734;2024-03-06T09:02:43;95222.50;;;20.39;46.03
9521;BME280;4798;41.574;23.734;2024-03-06T09:05:12;95219.72;;;20.60;44.53
9521;BME280;4798;41.574;23.734;2024-03-06T09:07:41;95220.59;;;20.52;44.34
9521;BME280;4798;41.574;23.734;2024-03-06T09:10:10;95171.91;;;20.45;42.71
9521;BME280;4798;41.574;23.734;2024-03-06T09:12:39;95213.38;;;21.37;43.61
9521;BME280;4798;41.574;23.734;2024-03-06T09:15:08;95205.19;;;21.21;42.83
9521;BME280;4798;41.574;23.734;2024-03-06T09:17:39;95207.69;;;21.66;42.45
9521;BME280;4798;41.574;23.734;2024-03-06T09:20:10;95205.44;;;22.08;40.45
9521;BME280;4798;41.574;23.734;2024-03-06T09:22:41;95207.50;;;22.42;39.43
9521;BME280;4798;41.574;23.734;2024-03-06T09:25:10;95203.66;;;22.87;38.42
9521;BME280;4798;41.574;23.734;2024-03-06T09:27:43;95178.91;;;22.26;38.81
9521;BME280;4798;41.574;23.734;2024-03-06T09:30:12;95202.00;;;22.23;37.81
9521;BME280;4798;41.574;23.734;2024-03-06T09:32:43;95196.84;;;23.43;39.21
9521;BME280;4798;41.574;23.734;2024-03-06T09:35:13;95178.84;;;23.16;37.89
9521;BME280;4798;41.574;23.734;2024-03-06T09:37:45;95186.94;;;21.55;39.82
9521;BME280;4798;41.574;23.734;2024-03-06T09:40:21;95190.47;;;22.10;42.65
9521;BME280;4798;41.574;23.734;2024-03-06T09:42:50;95191.91;;;22.36;40.33
9521;BME280;4798;41.574;23.734;2024-03-06T09:45:20;95187.28;;;21.93;40.14
9521;BME280;4798;41.574;23.734;2024-03-06T09:47:49;95181.53;;;23.16;39.56
9521;BME280;4798;41.574;23.734;2024-03-06T09:50:23;95141.75;;;22.82;40.03
9521;BME280;4798;41.574;23.734;2024-03-06T09:52:55;94997.78;;;22.65;38.37
9521;BME280;4798;41.574;23.734;2024-03-06T09:55:25;95136.81;;;23.03;37.08
9521;BME280;4798;41.574;23.734;2024-03-06T09:57:55;95138.13;;;24.01;37.95
9521;BME280;4798;41.574;23.734;2024-03-06T10:00:23;95171.06;;;24.45;38.22
9521;BME280;4798;41.574;23.734;2024-03-06T10:02:57;95169.56;;;22.66;37.05
9521;BME280;4798;41.574;23.734;2024-03-06T10:05:29;95176.91;;;24.47;36.89
9521;BME280;4798;41.574;23.734;2024-03-06T10:08:00;95139.06;;;24.50;35.73
9521;BME280;4798;41.574;23.734;2024-03-06T10:10:29;95152.97;;;24.94;35.75
9521;BME280;4798;41.574;23.734;2024-03-06T10:12:57;95142.78;;;25.14;35.99
9521;BME280;4798;41.574;23.734;2024-03-06T10:15:30;95156.19;;;25.85;34.88
9521;BME280;4798;41.574;23.734;2024-03-06T10:18:13;95160.63;;;24.89;35.96
9521;BME280;4798;41.574;23.734;2024-03-06T10:20:47;95144.63;;;25.06;37.18
9521;BME280;4798;41.574;23.734;2024-03-06T10:23:15;95146.28;;;25.14;35.65
9521;BME280;4798;41.574;23.734;2024-03-06T10:25:47;95083.59;;;24.93;36.33
9521;BME280;4798;41.574;23.734;2024-03-06T10:28:19;95139.84;;;25.82;35.94
9521;BME280;4798;41.574;23.734;2024-03-06T10:30:49;95139.38;;;25.20;35.71
9521;BME280;4798;41.574;23.734;2024-03-06T10:33:19;95076.78;;;25.96;34.79
9521;BME280;4798;41.574;23.734;2024-03-06T10:35:49;95133.13;;;26.42;35.31
9521;BME280;4798;41.574;23.734;2024-03-06T10:38:20;95122.28;;;24.68;35.30
9521;BME280;4798;41.574;23.734;2024-03-06T10:40:50;95132.66;;;25.11;36.30
9521;BME280;4798;41.574;23.734;2024-03-06T10:43:21;95126.50;;;24.88;35.50
9521;BME280;4798;41.574;23.734;2024-03-06T10:46:00;95118.63;;;26.28;36.10
9521;BME280;4798;41.574;23.734;2024-03-06T10:48:31;95078.59;;;25.51;34.30
9521;BME280;4798;41.574;23.734;2024-03-06T10:51:04;95114.94;;;26.10;35.34
9521;BME280;4798;41.574;23.734;2024-03-06T10:53:34;95079.38;;;25.52;35.11
9521;BME280;4798;41.574;23.734;2024-03-06T10:56:08;95108.63;;;24.60;36.82
9521;BME280;4798;41.574;23.734;2024-03-06T10:58:38;95081.91;;;24.14;36.78
9521;BME280;4798;41.574;23.734;2024-03-06T11:01:08;95102.16;;;24.91;35.99
9521;BME280;4798;41.574;23.734;2024-03-06T11:03:38;95099.06;;;25.19;34.83
9521;BME280;4798;41.574;23.734;2024-03-06T11:06:08;95089.38;;;25.77;36.12
9521;BME280;4798;41.574;23.734;2024-03-06T11:08:37;95094.03;;;27.05;33.69
9521;BME280;4798;41.574;23.734;2024-03-06T11:11:22;95081.34;;;28.27;32.10
9521;BME280;4798;41.574;23.734;2024-03-06T11:13:54;95069.28;;;26.66;34.37
9521;BME280;4798;41.574;23.734;2024-03-06T11:16:28;95078.25;;;25.27;36.21
9521;BME280;4798;41.574;23.734;2024-03-06T11:19:07;95065.88;;;25.29;35.94
9521;BME280;4798;41.574;23.734;2024-03-06T11:21:48;95054.81;;;24.85;36.92
9521;BME280;4798;41.574;23.734;2024-03-06T11:24:18;95066.41;;;23.91;37.42
9521;BME280;4798;41.574;23.734;2024-03-06T11:26:57;95058.09;;;21.91;40.03
9521;BME280;4798;41.574;23.734;2024-03-06T11:32:58;94996.03;;;20.92;41.85
9521;BME280;4798;41.574;23.734;2024-03-06T11:35:28;95059.59;;;22.51;40.54
9521;BME280;4798;41.574;23.734;2024-03-06T11:38:01;95054.63;;;22.22;39.78
9521;BME280;4798;41.574;23.734;2024-03-06T11:40:30;95030.13;;;21.01;41.64
9521;BME280;4798;41.574;23.734;2024-03-06T11:43:23;95055.00;;;20.82;42.01
9521;BME280;4798;41.574;23.734;2024-03-06T11:45:53;95037.03;;;21.26;41.48
9521;BME280;4798;41.574;23.734;2024-03-06T11:48:22;95036.31;;;20.37;43.31
9521;BME280;4798;41.574;23.734;2024-03-06T11:50:51;95045.72;;;19.50;43.75
9521;BME280;4798;41.574;23.734;2024-03-06T11:53:21;95027.56;;;19.26;44.41
9521;BME280;4798;41.574;23.734;2024-03-06T11:55:50;95012.41;;;18.68;44.74
9521;BME280;4798;41.574;23.734;2024-03-06T11:58:19;95036.81;;;18.96;45.22
9521;BME280;4798;41.574;23.734;2024-03-06T12:00:47;95029.31;;;19.88;43.23
9521;BME280;4798;41.574;23.734;2024-03-06T12:03:17;95032.59;;;19.93;42.07
9521;BME280;4798;41.574;23.734;2024-03-06T12:05:46;95030.22;;;21.16;41.96
9521;BME280;4798;41.574;23.734;2024-03-06T12:08:16;95022.25;;;21.47;38.84
9521;BME280;4798;41.574;23.734;2024-03-06T12:10:46;95023.13;;;22.26;38.12
9521;BME280;4798;41.574;23.734;2024-03-06T12:13:15;95022.66;;;22.40;36.28
9521;BME280;4798;41.574;23.734;2024-03-06T12:15:44;95013.09;;;23.73;35.00
9521;BME280;4798;41.574;23.734;2024-03-06T12:18:13;94987.72;;;24.26;33.86
9521;BME280;4798;41.574;23.734;2024-03-06T12:20:42;94959.06;;;24.78;33.89
9521;BME280;4798;41.574;23.734;2024-03-06T12:23:20;94968.22;;;25.29;33.75
9521;BME280;4798;41.574;23.734;2024-03-06T12:26:04;95003.38;;;26.32;31.21
9521;BME280;4798;41.574;23.734;2024-03-06T12:28:33;94993.75;;;26.38;32.22
9521;BME280;4798;41.574;23.734;2024-03-06T12:31:03;94992.97;;;27.03;31.49
9521;BME280;4798;41.574;23.734;2024-03-06T12:33:32;94942.50;;;27.16;31.19
9521;BME280;4798;41.574;23.734;2024-03-06T12:36:05;94999.63;;;27.13;28.82
9521;BME280;4798;41.574;23.734;2024-03-06T12:38:38;94995.31;;;26.46;29.57
9521;BME280;4798;41.574;23.734;2024-03-06T12:41:08;94999.44;;;26.26;31.44
9521;BME280;4798;41.574;23.734;2024-03-06T12:43:36;94974.84;;;26.60;29.74
9521;BME280;4798;41.574;23.734;2024-03-06T12:46:05;94999.97;;;24.69;30.33
9521;BME280;4798;41.574;23.734;2024-03-06T12:48:34;94997.75;;;25.38;30.54
9521;BME280;4798;41.574;23.734;2024-03-06T12:51:03;94995.84;;;26.63;30.19
9521;BME280;4798;41.574;23.734;2024-03-06T12:53:32;94930.19;;;25.59;31.33
9521;BME280;4798;41.574;23.734;2024-03-06T12:56:02;94960.09;;;25.66;30.74
9521;BME280;4798;41.574;23.734;2024-03-06T12:58:33;94991.13;;;26.05;30.04
9521;BME280;4798;41.574;23.734;2024-03-06T13:01:03;94971.53;;;24.56;31.21
9521;BME280;4798;41.574;23.734;2024-03-06T13:03:32;94999.91;;;23.29;34.18
9521;BME280;4798;41.574;23.734;2024-03-06T13:06:00;95003.75;;;22.40;35.25
9521;BME280;4798;41.574;23.734;2024-03-06T13:08:29;95006.88;;;21.79;35.84
9521;BME280;4798;41.574;23.734;2024-03-06T13:10:58;94992.63;;;20.68;36.42
9521;BME280;4798;41.574;23.734;2024-03-06T13:13:29;94995.41;;;19.50;37.97
9521;BME280;4798;41.574;23.734;2024-03-06T13:16:01;95016.19;;;19.86;37.76
9521;BME280;4798;41.574;23.734;2024-03-06T13:18:33;95009.28;;;20.34;38.54
9521;BME280;4798;41.574;23.734;2024-03-06T13:21:02;95000.16;;;20.62;41.52
9521;BME280;4798;41.574;23.734;2024-03-06T13:23:31;94971.94;;;20.84;37.91
9521;BME280;4798;41.574;23.734;2024-03-06T13:25:59;95008.81;;;21.35;38.38
9521;BME280;4798;41.574;23.734;2024-03-06T13:28:28;95003.81;;;20.82;38.48
9521;BME280;4798;41.574;23.734;2024-03-06T13:30:57;95005.31;;;19.83;39.49
9521;BME280;4798;41.574;23.734;2024-03-06T13:33:27;95006.75;;;20.77;40.08